sensor_id;sensor_type;location;lat;lon;timestamp;P1;durP1;ratioP1;P2;durP2;ratioP2
1214;SDS011;597;51.998;5.880;2022-09-09T00:00:21;11.97;;;8.70;;
1214;SDS011;597;51.998;5.880;2022-09-09T00:02:53;10.70;;;7.10;;
1214;SDS011;597;51.998;5.880;2022-09-09T00:05:28;9.07;;;7.13;;
1214;SDS011;597;51.998;5.880;2022-09-09T00:07:55;14.03;;;8.80;;
1214;SDS011;597;51.998;5.880;2022-09-09T00:10:28;14.17;;;8.23;;
1214;SDS011;597;51.998;5.880;2022-09-09T00:15:21;10.80;;;7.20;;
1214;SDS011;597;51.998;5.880;2022-09-09T00:29:02;10.37;;;8.40;;
1214;SDS011;597;51.998;5.880;2022-09-09T00:31:29;15.83;;;8.53;;
1214;SDS011;597;51.998;5.880;2022-09-09T00:33:55;12.07;;;8.60;;
1214;SDS011;597;51.998;5.880;2022-09-09T00:36:23;15.77;;;8.60;;
1214;SDS011;597;51.998;5.880;2022-09-09T00:38:56;11.70;;;8.23;;
1214;SDS011;597;51.998;5.880;2022-09-09T00:41:26;14.47;;;8.27;;
1214;SDS011;597;51.998;5.880;2022-09-09T00:43:57;14.17;;;6.93;;
1214;SDS011;597;51.998;5.880;2022-09-09T00:54:14;14.50;;;8.60;;
1214;SDS011;597;51.998;5.880;2022-09-09T00:56:47;13.33;;;7.43;;
1214;SDS011;597;51.998;5.880;2022-09-09T00:59:22;12.83;;;8.30;;
1214;SDS011;597;51.998;5.880;2022-09-09T01:01:49;12.40;;;6.80;;
1214;SDS011;597;51.998;5.880;2022-09-09T01:04:20;10.93;;;6.60;;
1214;SDS011;597;51.998;5.880;2022-09-09T01:06:47;12.37;;;7.23;;
1214;SDS011;597;51.998;5.880;2022-09-09T01:09:38;13.27;;;7.83;;
1214;SDS011;597;51.998;5.880;2022-09-09T01:12:09;14.30;;;8.80;;
1214;SDS011;597;51.998;5.880;2022-09-09T01:17:05;14.77;;;8.17;;
1214;SDS011;597;51.998;5.880;2022-09-09T01:19:37;15.73;;;8.10;;
1214;SDS011;597;51.998;5.880;2022-09-09T01:22:24;8.03;;;6.30;;
1214;SDS011;597;51.998;5.880;2022-09-09T01:25:01;8.80;;;5.53;;
1214;SDS011;597;51.998;5.880;2022-09-09T01:27:32;11.33;;;6.10;;
1214;SDS011;597;51.998;5.880;2022-09-09T01:29:58;6.43;;;5.73;;
1214;SDS011;597;51.998;5.880;2022-09-09T01:32:38;12.10;;;6.10;;
1214;SDS011;597;51.998;5.880;2022-09-09T01:35:05;10.27;;;5.90;;
1214;SDS011;597;51.998;5.880;2022-09-09T01:37:33;8.23;;;6.00;;
1214;SDS011;597;51.998;5.880;2022-09-09T01:39:58;11.90;;;6.80;;
1214;SDS011;597;51.998;5.880;2022-09-09T01:42:23;10.07;;;5.87;;
1214;SDS011;597;51.998;5.880;2022-09-09T01:44:48;9.07;;;5.73;;
1214;SDS011;597;51.998;5.880;2022-09-09T01:47:14;11.47;;;6.33;;
1214;SDS011;597;51.998;5.880;2022-09-09T01:49:40;9.07;;;5.87;;
1214;SDS011;597;51.998;5.880;2022-09-09T01:52:05;8.57;;;5.53;;
1214;SDS011;597;51.998;5.880;2022-09-09T01:54:31;8.73;;;5.47;;
1214;SDS011;597;51.998;5.880;2022-09-09T02:02:07;5.73;;;5.03;;
1214;SDS011;597;51.998;5.880;2022-09-09T02:07:02;7.10;;;5.10;;
1214;SDS011;597;51.998;5.880;2022-09-09T02:09:29;8.00;;;5.43;;
1214;SDS011;597;51.998;5.880;2022-09-09T02:12:11;8.67;;;6.23;;
1214;SDS011;597;51.998;5.880;2022-09-09T02:14:41;6.83;;;5.60;;
1214;SDS011;597;51.998;5.880;2022-09-09T02:17:10;6.40;;;5.77;;
1214;SDS011;597;51.998;5.880;2022-09-09T02:19:40;10.70;;;7.30;;
1214;SDS011;597;51.998;5.880;2022-09-09T02:22:07;12.43;;;7.00;;
1214;SDS011;597;51.998;5.880;2022-09-09T02:24:34;8.30;;;7.00;;
1214;SDS011;597;51.998;5.880;2022-09-09T02:27:18;9.13;;;6.60;;
1214;SDS011;597;51.998;5.880;2022-09-09T02:29:46;11.73;;;6.23;;
1214;SDS011;597;51.998;5.880;2022-09-09T02:32:20;12.90;;;6.77;;
1214;SDS011;597;51.998;5.880;2022-09-09T02:34:47;15.20;;;7.40;;
1214;SDS011;597;51.998;5.880;2022-09-09T02:37:15;9.53;;;7.30;;
1214;SDS011;597;51.998;5.880;2022-09-09T02:39:42;10.53;;;7.27;;
1214;SDS011;597;51.998;5.880;2022-09-09T02:42:07;11.37;;;7.50;;
1214;SDS011;597;51.998;5.880;2022-09-09T02:44:33;8.73;;;6.77;;
1214;SDS011;597;51.998;5.880;2022-09-09T02:55:07;10.97;;;9.50;;
1214;SDS011;597;51.998;5.880;2022-09-09T02:57:37;17.10;;;8.17;;
1214;SDS011;597;51.998;5.880;2022-09-09T03:00:03;11.53;;;7.97;;
1214;SDS011;597;51.998;5.880;2022-09-09T03:02:29;10.00;;;7.67;;
1214;SDS011;597;51.998;5.880;2022-09-09T03:04:55;11.37;;;8.50;;
1214;SDS011;597;51.998;5.880;2022-09-09T03:07:20;12.73;;;8.13;;
1214;SDS011;597;51.998;5.880;2022-09-09T03:09:46;13.40;;;8.50;;
1214;SDS011;597;51.998;5.880;2022-09-09T03:12:11;12.67;;;8.80;;
1214;SDS011;597;51.998;5.880;2022-09-09T03:14:37;12.47;;;7.57;;
1214;SDS011;597;51.998;5.880;2022-09-09T03:17:03;11.93;;;7.83;;
1214;SDS011;597;51.998;5.880;2022-09-09T03:19:29;15.90;;;8.87;;
1214;SDS011;597;51.998;5.880;2022-09-09T03:21:54;12.03;;;8.90;;
1214;SDS011;597;51.998;5.880;2022-09-09T03:24:20;15.93;;;8.40;;
1214;SDS011;597;51.998;5.880;2022-09-09T03:26:45;12.80;;;8.20;;
1214;SDS011;597;51.998;5.880;2022-09-09T03:29:11;13.27;;;9.23;;
1214;SDS011;597;51.998;5.880;2022-09-09T03:31:37;13.07;;;8.30;;
1214;SDS011;597;51.998;5.880;2022-09-09T03:34:03;13.40;;;9.10;;
1214;SDS011;597;51.998;5.880;2022-09-09T03:36:28;13.17;;;8.80;;
1214;SDS011;597;51.998;5.880;2022-09-09T03:38:54;14.97;;;9.37;;
1214;SDS011;597;51.998;5.880;2022-09-09T03:41:20;14.73;;;9.87;;
1214;SDS011;597;51.998;5.880;2022-09-09T03:43:46;16.20;;;8.90;;
1214;SDS011;597;51.998;5.880;2022-09-09T03:46:11;12.20;;;8.33;;
1214;SDS011;597;51.998;5.880;2022-09-09T03:48:36;12.20;;;8.50;;
1214;SDS011;597;51.998;5.880;2022-09-09T03:51:01;16.60;;;8.27;;
1214;SDS011;597;51.998;5.880;2022-09-09T03:53:28;18.37;;;9.00;;
1214;SDS011;597;51.998;5.880;2022-09-09T03:55:55;11.30;;;8.57;;
1214;SDS011;597;51.998;5.880;2022-09-09T03:58:21;17.33;;;8.93;;
1214;SDS011;597;51.998;5.880;2022-09-09T04:00:54;13.33;;;8.60;;
1214;SDS011;597;51.998;5.880;2022-09-09T04:03:19;12.47;;;8.47;;
1214;SDS011;597;51.998;5.880;2022-09-09T04:05:45;13.87;;;8.93;;
1214;SDS011;597;51.998;5.880;2022-09-09T04:08:13;12.47;;;8.90;;
1214;SDS011;597;51.998;5.880;2022-09-09T04:10:38;13.23;;;8.27;;
1214;SDS011;597;51.998;5.880;2022-09-09T04:13:04;14.47;;;8.53;;
1214;SDS011;597;51.998;5.880;2022-09-09T04:15:29;14.37;;;8.30;;
1214;SDS011;597;51.998;5.880;2022-09-09T04:17:55;17.50;;;9.40;;
1214;SDS011;597;51.998;5.880;2022-09-09T04:20:20;12.87;;;8.50;;
1214;SDS011;597;51.998;5.880;2022-09-09T04:22:47;14.93;;;8.60;;
1214;SDS011;597;51.998;5.880;2022-09-09T04:25:12;13.40;;;8.13;;
1214;SDS011;597;51.998;5.880;2022-09-09T04:27:37;20.73;;;8.90;;
1214;SDS011;597;51.998;5.880;2022-09-09T04:30:03;12.83;;;9.00;;
1214;SDS011;597;51.998;5.880;2022-09-09T04:32:28;15.27;;;9.30;;
1214;SDS011;597;51.998;5.880;2022-09-09T04:34:53;18.83;;;9.10;;
1214;SDS011;597;51.998;5.880;2022-09-09T04:37:19;18.27;;;8.10;;
1214;SDS011;597;51.998;5.880;2022-09-09T04:39:44;18.30;;;8.73;;
1214;SDS011;597;51.998;5.880;2022-09-09T04:42:10;18.03;;;9.83;;
1214;SDS011;597;51.998;5.880;2022-09-09T04:44:36;12.83;;;8.80;;
1214;SDS011;597;51.998;5.880;2022-09-09T04:47:02;14.40;;;9.67;;
1214;SDS011;597;51.998;5.880;2022-09-09T04:49:27;14.33;;;7.90;;
1214;SDS011;597;51.998;5.880;2022-09-09T04:51:52;20.33;;;8.47;;
1214;SDS011;597;51.998;5.880;2022-09-09T04:54:18;23.53;;;8.80;;
1214;SDS011;597;51.998;5.880;2022-09-09T04:56:44;12.70;;;8.43;;
1214;SDS011;597;51.998;5.880;2022-09-09T04:59:09;16.10;;;9.40;;
1214;SDS011;597;51.998;5.880;2022-09-09T05:01:34;19.40;;;9.23;;
1214;SDS011;597;51.998;5.880;2022-09-09T05:04:01;15.10;;;8.60;;
1214;SDS011;597;51.998;5.880;2022-09-09T05:06:27;20.93;;;10.10;;
1214;SDS011;597;51.998;5.880;2022-09-09T05:08:52;18.83;;;9.00;;
1214;SDS011;597;51.998;5.880;2022-09-09T05:13:43;12.97;;;7.50;;
1214;SDS011;597;51.998;5.880;2022-09-09T05:16:09;17.13;;;8.20;;
1214;SDS011;597;51.998;5.880;2022-09-09T05:18:37;16.27;;;9.50;;
1214;SDS011;597;51.998;5.880;2022-09-09T05:21:02;15.23;;;8.03;;
1214;SDS011;597;51.998;5.880;2022-09-09T05:23:27;20.00;;;8.43;;
1214;SDS011;597;51.998;5.880;2022-09-09T05:25:56;15.37;;;8.33;;
1214;SDS011;597;51.998;5.880;2022-09-09T05:28:22;11.60;;;7.30;;
1214;SDS011;597;51.998;5.880;2022-09-09T05:30:54;16.00;;;9.00;;
1214;SDS011;597;51.998;5.880;2022-09-09T05:33:19;22.47;;;8.33;;
1214;SDS011;597;51.998;5.880;2022-09-09T05:35:46;18.80;;;8.10;;
1214;SDS011;597;51.998;5.880;2022-09-09T05:38:11;13.30;;;7.43;;
1214;SDS011;597;51.998;5.880;2022-09-09T05:40:36;12.53;;;7.93;;
1214;SDS011;597;51.998;5.880;2022-09-09T05:43:01;15.37;;;7.40;;
1214;SDS011;597;51.998;5.880;2022-09-09T05:45:26;15.73;;;7.47;;
1214;SDS011;597;51.998;5.880;2022-09-09T05:47:52;15.60;;;8.57;;
1214;SDS011;597;51.998;5.880;2022-09-09T05:50:20;16.60;;;7.20;;
1214;SDS011;597;51.998;5.880;2022-09-09T05:52:48;14.77;;;7.57;;
1214;SDS011;597;51.998;5.880;2022-09-09T05:55:14;15.70;;;7.93;;
1214;SDS011;597;51.998;5.880;2022-09-09T05:57:40;13.30;;;7.77;;
1214;SDS011;597;51.998;5.880;2022-09-09T06:00:05;14.67;;;8.70;;
1214;SDS011;597;51.998;5.880;2022-09-09T06:02:32;22.20;;;9.30;;
1214;SDS011;597;51.998;5.880;2022-09-09T06:04:58;15.70;;;7.43;;
1214;SDS011;597;51.998;5.880;2022-09-09T06:07:23;17.93;;;8.00;;
1214;SDS011;597;51.998;5.880;2022-09-09T06:09:48;20.17;;;7.77;;
1214;SDS011;597;51.998;5.880;2022-09-09T06:12:13;28.93;;;8.60;;
1214;SDS011;597;51.998;5.880;2022-09-09T06:14:39;19.23;;;8.13;;
1214;SDS011;597;51.998;5.880;2022-09-09T06:17:04;11.43;;;7.67;;
1214;SDS011;597;51.998;5.880;2022-09-09T06:19:30;17.20;;;7.80;;
1214;SDS011;597;51.998;5.880;2022-09-09T06:21:55;14.17;;;7.10;;
1214;SDS011;597;51.998;5.880;2022-09-09T06:24:21;18.40;;;6.17;;
1214;SDS011;597;51.998;5.880;2022-09-09T06:26:46;14.60;;;8.10;;
1214;SDS011;597;51.998;5.880;2022-09-09T06:29:12;23.90;;;8.07;;
1214;SDS011;597;51.998;5.880;2022-09-09T06:31:37;15.90;;;7.70;;
1214;SDS011;597;51.998;5.880;2022-09-09T06:34:04;21.47;;;9.03;;
1214;SDS011;597;51.998;5.880;2022-09-09T06:36:33;13.20;;;6.73;;
1214;SDS011;597;51.998;5.880;2022-09-09T06:38:59;16.17;;;6.30;;
1214;SDS011;597;51.998;5.880;2022-09-09T06:41:26;9.93;;;6.03;;
1214;SDS011;597;51.998;5.880;2022-09-09T06:43:51;19.03;;;6.70;;
1214;SDS011;597;51.998;5.880;2022-09-09T06:46:18;15.33;;;6.10;;
1214;SDS011;597;51.998;5.880;2022-09-09T06:48:44;9.33;;;5.90;;
1214;SDS011;597;51.998;5.880;2022-09-09T06:53:36;26.37;;;6.17;;
1214;SDS011;597;51.998;5.880;2022-09-09T06:56:15;15.50;;;6.40;;
1214;SDS011;597;51.998;5.880;2022-09-09T06:58:42;13.20;;;5.23;;
1214;SDS011;597;51.998;5.880;2022-09-09T07:01:14;10.70;;;5.70;;
1214;SDS011;597;51.998;5.880;2022-09-09T07:03:40;11.53;;;5.33;;
1214;SDS011;597;51.998;5.880;2022-09-09T07:06:07;11.93;;;5.70;;
1214;SDS011;597;51.998;5.880;2022-09-09T07:08:33;15.30;;;5.53;;
1214;SDS011;597;51.998;5.880;2022-09-09T07:11:03;13.17;;;5.53;;
1214;SDS011;597;51.998;5.880;2022-09-09T07:13:29;8.90;;;5.40;;
1214;SDS011;597;51.998;5.880;2022-09-09T07:15:55;15.33;;;5.90;;
1214;SDS011;597;51.998;5.880;2022-09-09T07:18:20;17.43;;;5.00;;
1214;SDS011;597;51.998;5.880;2022-09-09T07:20:55;9.60;;;5.07;;
1214;SDS011;597;51.998;5.880;2022-09-09T07:23:21;11.53;;;5.00;;
1214;SDS011;597;51.998;5.880;2022-09-09T07:25:46;16.73;;;5.27;;
1214;SDS011;597;51.998;5.880;2022-09-09T07:28:12;16.80;;;5.50;;
1214;SDS011;597;51.998;5.880;2022-09-09T07:30:38;12.67;;;5.67;;
1214;SDS011;597;51.998;5.880;2022-09-09T07:33:03;16.47;;;6.27;;
1214;SDS011;597;51.998;5.880;2022-09-09T07:35:28;6.40;;;5.20;;
1214;SDS011;597;51.998;5.880;2022-09-09T07:37:54;12.93;;;5.37;;
1214;SDS011;597;51.998;5.880;2022-09-09T07:40:19;14.90;;;5.17;;
1214;SDS011;597;51.998;5.880;2022-09-09T07:42:46;13.33;;;5.53;;
1214;SDS011;597;51.998;5.880;2022-09-09T07:45:12;12.90;;;5.57;;
1214;SDS011;597;51.998;5.880;2022-09-09T07:47:37;17.93;;;5.27;;
1214;SDS011;597;51.998;5.880;2022-09-09T07:50:03;9.73;;;5.00;;
1214;SDS011;597;51.998;5.880;2022-09-09T07:52:28;14.03;;;4.93;;
1214;SDS011;597;51.998;5.880;2022-09-09T07:54:53;15.30;;;5.03;;
1214;SDS011;597;51.998;5.880;2022-09-09T07:57:18;12.00;;;5.33;;
1214;SDS011;597;51.998;5.880;2022-09-09T07:59:43;11.90;;;5.20;;
1214;SDS011;597;51.998;5.880;2022-09-09T08:02:11;10.47;;;5.37;;
1214;SDS011;597;51.998;5.880;2022-09-09T08:04:37;9.60;;;4.27;;
1214;SDS011;597;51.998;5.880;2022-09-09T08:07:02;18.33;;;5.33;;
1214;SDS011;597;51.998;5.880;2022-09-09T08:09:28;12.00;;;4.77;;
1214;SDS011;597;51.998;5.880;2022-09-09T08:11:54;9.80;;;4.90;;
1214;SDS011;597;51.998;5.880;2022-09-09T08:14:21;15.27;;;5.43;;
1214;SDS011;597;51.998;5.880;2022-09-09T08:16:47;6.27;;;4.17;;
1214;SDS011;597;51.998;5.880;2022-09-09T08:19:14;15.93;;;4.33;;
1214;SDS011;597;51.998;5.880;2022-09-09T08:21:43;12.47;;;4.43;;
1214;SDS011;597;51.998;5.880;2022-09-09T08:24:09;14.47;;;6.13;;
1214;SDS011;597;51.998;5.880;2022-09-09T08:26:39;9.33;;;4.40;;
1214;SDS011;597;51.998;5.880;2022-09-09T08:29:06;8.30;;;4.50;;
1214;SDS011;597;51.998;5.880;2022-09-09T08:31:39;9.83;;;5.00;;
1214;SDS011;597;51.998;5.880;2022-09-09T08:34:05;14.30;;;4.97;;
1214;SDS011;597;51.998;5.880;2022-09-09T08:36:32;9.17;;;4.33;;
1214;SDS011;597;51.998;5.880;2022-09-09T08:39:01;10.03;;;5.10;;
1214;SDS011;597;51.998;5.880;2022-09-09T08:43:51;10.83;;;4.77;;
1214;SDS011;597;51.998;5.880;2022-09-09T08:49:13;14.97;;;4.40;;
1214;SDS011;597;51.998;5.880;2022-09-09T08:51:41;9.07;;;4.53;;
1214;SDS011;597;51.998;5.880;2022-09-09T08:54:07;10.87;;;4.83;;
1214;SDS011;597;51.998;5.880;2022-09-09T08:56:34;10.33;;;4.03;;
1214;SDS011;597;51.998;5.880;2022-09-09T08:58:59;9.57;;;3.80;;
1214;SDS011;597;51.998;5.880;2022-09-09T09:01:42;12.77;;;4.10;;
1214;SDS011;597;51.998;5.880;2022-09-09T09:04:22;9.40;;;3.80;;
1214;SDS011;597;51.998;5.880;2022-09-09T09:09:23;12.30;;;4.10;;
1214;SDS011;597;51.998;5.880;2022-09-09T09:11:51;11.83;;;3.53;;
1214;SDS011;597;51.998;5.880;2022-09-09T09:14:22;16.40;;;3.83;;
1214;SDS011;597;51.998;5.880;2022-09-09T09:16:58;9.23;;;3.47;;
1214;SDS011;597;51.998;5.880;2022-09-09T09:19:24;10.00;;;3.87;;
1214;SDS011;597;51.998;5.880;2022-09-09T09:21:56;15.67;;;3.67;;
1214;SDS011;597;51.998;5.880;2022-09-09T09:24:25;8.97;;;3.37;;
1214;SDS011;597;51.998;5.880;2022-09-09T09:26:53;6.67;;;3.33;;
1214;SDS011;597;51.998;5.880;2022-09-09T09:29:19;7.23;;;2.83;;
1214;SDS011;597;51.998;5.880;2022-09-09T09:31:55;12.83;;;4.20;;
1214;SDS011;597;51.998;5.880;2022-09-09T09:34:22;7.83;;;3.13;;
1214;SDS011;597;51.998;5.880;2022-09-09T09:36:54;8.53;;;3.50;;
1214;SDS011;597;51.998;5.880;2022-09-09T09:39:25;7.10;;;3.60;;
1214;SDS011;597;51.998;5.880;2022-09-09T09:41:51;12.40;;;3.40;;
1214;SDS011;597;51.998;5.880;2022-09-09T09:44:30;6.50;;;3.53;;
1214;SDS011;597;51.998;5.880;2022-09-09T09:47:08;7.47;;;3.00;;
1214;SDS011;597;51.998;5.880;2022-09-09T09:49:35;10.80;;;3.10;;
1214;SDS011;597;51.998;5.880;2022-09-09T09:52:02;10.67;;;3.60;;
1214;SDS011;597;51.998;5.880;2022-09-09T09:54:28;11.40;;;3.87;;
1214;SDS011;597;51.998;5.880;2022-09-09T09:56:54;9.03;;;3.80;;
1214;SDS011;597;51.998;5.880;2022-09-09T09:59:32;12.83;;;3.43;;
1214;SDS011;597;51.998;5.880;2022-09-09T10:02:13;8.13;;;3.83;;
1214;SDS011;597;51.998;5.880;2022-09-09T10:04:38;6.30;;;3.33;;
1214;SDS011;597;51.998;5.880;2022-09-09T10:09:59;10.47;;;3.80;;
1214;SDS011;597;51.998;5.880;2022-09-09T10:15:29;5.47;;;3.07;;
1214;SDS011;597;51.998;5.880;2022-09-09T10:20:42;10.80;;;3.50;;
1214;SDS011;597;51.998;5.880;2022-09-09T10:28:33;14.93;;;3.40;;
1214;SDS011;597;51.998;5.880;2022-09-09T10:36:13;13.20;;;3.10;;
1214;SDS011;597;51.998;5.880;2022-09-09T10:38:46;15.63;;;5.40;;
1214;SDS011;597;51.998;5.880;2022-09-09T10:41:26;16.27;;;3.37;;
1214;SDS011;597;51.998;5.880;2022-09-09T10:44:14;10.17;;;3.17;;
1214;SDS011;597;51.998;5.880;2022-09-09T10:51:58;9.07;;;3.00;;
1214;SDS011;597;51.998;5.880;2022-09-09T10:54:31;11.87;;;3.07;;
1214;SDS011;597;51.998;5.880;2022-09-09T10:57:01;7.70;;;3.20;;
1214;SDS011;597;51.998;5.880;2022-09-09T10:59:29;11.80;;;3.83;;
1214;SDS011;597;51.998;5.880;2022-09-09T11:04:34;9.13;;;2.93;;
1214;SDS011;597;51.998;5.880;2022-09-09T11:07:01;13.47;;;3.63;;
1214;SDS011;597;51.998;5.880;2022-09-09T11:09:31;6.53;;;2.67;;
1214;SDS011;597;51.998;5.880;2022-09-09T11:11:58;10.17;;;3.07;;
1214;SDS011;597;51.998;5.880;2022-09-09T11:14:37;13.10;;;4.63;;
1214;SDS011;597;51.998;5.880;2022-09-09T11:17:10;5.53;;;2.77;;
1214;SDS011;597;51.998;5.880;2022-09-09T11:19:41;7.23;;;2.40;;
1214;SDS011;597;51.998;5.880;2022-09-09T11:22:15;6.10;;;3.50;;
1214;SDS011;597;51.998;5.880;2022-09-09T11:24:47;9.50;;;3.07;;
1214;SDS011;597;51.998;5.880;2022-09-09T11:27:29;6.17;;;3.87;;
1214;SDS011;597;51.998;5.880;2022-09-09T11:34:59;17.77;;;5.07;;
1214;SDS011;597;51.998;5.880;2022-09-09T11:37:37;9.40;;;4.80;;
1214;SDS011;597;51.998;5.880;2022-09-09T11:42:43;10.43;;;4.03;;
1214;SDS011;597;51.998;5.880;2022-09-09T11:45:19;11.03;;;3.33;;
1214;SDS011;597;51.998;5.880;2022-09-09T11:47:56;12.20;;;4.40;;
1214;SDS011;597;51.998;5.880;2022-09-09T11:52:49;4.60;;;3.67;;
1214;SDS011;597;51.998;5.880;2022-09-09T11:55:25;3.90;;;2.90;;
1214;SDS011;597;51.998;5.880;2022-09-09T11:58:00;4.80;;;2.80;;
1214;SDS011;597;51.998;5.880;2022-09-09T12:03:02;10.00;;;2.77;;
1214;SDS011;597;51.998;5.880;2022-09-09T12:05:40;7.63;;;3.37;;
1214;SDS011;597;51.998;5.880;2022-09-09T12:08:08;4.03;;;2.83;;
1214;SDS011;597;51.998;5.880;2022-09-09T12:10:35;9.37;;;4.33;;
1214;SDS011;597;51.998;5.880;2022-09-09T12:15:48;13.30;;;3.93;;
1214;SDS011;597;51.998;5.880;2022-09-09T12:18:15;5.57;;;2.37;;
1214;SDS011;597;51.998;5.880;2022-09-09T12:21:08;6.00;;;3.57;;
1214;SDS011;597;51.998;5.880;2022-09-09T12:36:59;7.40;;;3.70;;
1214;SDS011;597;51.998;5.880;2022-09-09T12:39:35;6.80;;;2.97;;
1214;SDS011;597;51.998;5.880;2022-09-09T12:42:02;6.90;;;3.40;;
1214;SDS011;597;51.998;5.880;2022-09-09T12:44:29;9.53;;;3.53;;
1214;SDS011;597;51.998;5.880;2022-09-09T12:46:54;3.40;;;2.63;;
1214;SDS011;597;51.998;5.880;2022-09-09T12:51:48;6.27;;;3.27;;
1214;SDS011;597;51.998;5.880;2022-09-09T12:54:14;12.10;;;3.07;;
1214;SDS011;597;51.998;5.880;2022-09-09T12:56:40;8.53;;;3.50;;
1214;SDS011;597;51.998;5.880;2022-09-09T12:59:17;7.03;;;3.57;;
1214;SDS011;597;51.998;5.880;2022-09-09T13:01:45;6.23;;;3.00;;
1214;SDS011;597;51.998;5.880;2022-09-09T13:04:19;7.30;;;3.00;;
1214;SDS011;597;51.998;5.880;2022-09-09T13:06:45;8.00;;;3.70;;
1214;SDS011;597;51.998;5.880;2022-09-09T13:09:10;4.77;;;2.87;;
1214;SDS011;597;51.998;5.880;2022-09-09T13:11:37;5.03;;;3.10;;
1214;SDS011;597;51.998;5.880;2022-09-09T13:14:03;6.27;;;3.37;;
1214;SDS011;597;51.998;5.880;2022-09-09T13:16:30;3.50;;;3.20;;
1214;SDS011;597;51.998;5.880;2022-09-09T13:18:57;8.00;;;3.00;;
1214;SDS011;597;51.998;5.880;2022-09-09T13:21:32;5.40;;;3.30;;
1214;SDS011;597;51.998;5.880;2022-09-09T13:23:58;8.77;;;4.40;;
1214;SDS011;597;51.998;5.880;2022-09-09T13:26:28;5.33;;;4.03;;
1214;SDS011;597;51.998;5.880;2022-09-09T13:28:55;4.30;;;3.20;;
1214;SDS011;597;51.998;5.880;2022-09-09T13:31:33;6.03;;;3.63;;
1214;SDS011;597;51.998;5.880;2022-09-09T13:33:58;6.97;;;3.73;;
1214;SDS011;597;51.998;5.880;2022-09-09T13:36:30;5.87;;;3.53;;
1214;SDS011;597;51.998;5.880;2022-09-09T13:38:56;5.47;;;3.00;;
1214;SDS011;597;51.998;5.880;2022-09-09T13:41:22;8.30;;;3.80;;
1214;SDS011;597;51.998;5.880;2022-09-09T13:43:48;10.33;;;3.53;;
1214;SDS011;597;51.998;5.880;2022-09-09T13:46:32;13.07;;;3.60;;
1214;SDS011;597;51.998;5.880;2022-09-09T13:48:59;5.00;;;3.07;;
1214;SDS011;597;51.998;5.880;2022-09-09T13:51:28;10.43;;;4.07;;
1214;SDS011;597;51.998;5.880;2022-09-09T13:53:54;7.30;;;4.00;;
1214;SDS011;597;51.998;5.880;2022-09-09T13:56:19;4.40;;;3.10;;
1214;SDS011;597;51.998;5.880;2022-09-09T13:58:45;8.57;;;3.50;;
1214;SDS011;597;51.998;5.880;2022-09-09T14:01:10;7.43;;;3.33;;
1214;SDS011;597;51.998;5.880;2022-09-09T14:03:36;7.07;;;3.50;;
1214;SDS011;597;51.998;5.880;2022-09-09T14:06:02;8.60;;;4.40;;
1214;SDS011;597;51.998;5.880;2022-09-09T14:08:28;8.27;;;4.40;;
1214;SDS011;597;51.998;5.880;2022-09-09T14:11:01;9.07;;;3.27;;
1214;SDS011;597;51.998;5.880;2022-09-09T14:13:27;9.07;;;3.70;;
1214;SDS011;597;51.998;5.880;2022-09-09T14:15:52;6.70;;;2.97;;
1214;SDS011;597;51.998;5.880;2022-09-09T14:18:17;5.07;;;2.80;;
1214;SDS011;597;51.998;5.880;2022-09-09T14:20:43;7.53;;;2.60;;
1214;SDS011;597;51.998;5.880;2022-09-09T14:23:10;2.80;;;2.00;;
1214;SDS011;597;51.998;5.880;2022-09-09T14:25:35;6.53;;;2.87;;
1214;SDS011;597;51.998;5.880;2022-09-09T14:28:01;4.43;;;2.30;;
1214;SDS011;597;51.998;5.880;2022-09-09T14:30:27;7.30;;;2.50;;
1214;SDS011;597;51.998;5.880;2022-09-09T14:32:52;8.23;;;3.17;;
1214;SDS011;597;51.998;5.880;2022-09-09T14:35:17;6.00;;;3.40;;
1214;SDS011;597;51.998;5.880;2022-09-09T14:37:43;7.97;;;2.40;;
1214;SDS011;597;51.998;5.880;2022-09-09T14:40:09;9.97;;;3.40;;
1214;SDS011;597;51.998;5.880;2022-09-09T14:42:36;4.93;;;3.00;;
1214;SDS011;597;51.998;5.880;2022-09-09T14:45:02;4.30;;;3.17;;
1214;SDS011;597;51.998;5.880;2022-09-09T14:47:27;5.20;;;2.43;;
1214;SDS011;597;51.998;5.880;2022-09-09T14:49:52;9.13;;;3.67;;
1214;SDS011;597;51.998;5.880;2022-09-09T14:52:18;6.47;;;2.73;;
1214;SDS011;597;51.998;5.880;2022-09-09T14:54:43;5.53;;;2.70;;
1214;SDS011;597;51.998;5.880;2022-09-09T14:57:09;4.50;;;2.77;;
1214;SDS011;597;51.998;5.880;2022-09-09T14:59:34;6.17;;;3.13;;
1214;SDS011;597;51.998;5.880;2022-09-09T15:01:59;5.33;;;2.87;;
1214;SDS011;597;51.998;5.880;2022-09-09T15:04:28;7.37;;;2.93;;
1214;SDS011;597;51.998;5.880;2022-09-09T15:06:54;5.93;;;3.10;;
1214;SDS011;597;51.998;5.880;2022-09-09T15:09:19;6.37;;;3.00;;
1214;SDS011;597;51.998;5.880;2022-09-09T15:11:44;6.10;;;2.83;;
1214;SDS011;597;51.998;5.880;2022-09-09T15:14:10;8.20;;;2.90;;
1214;SDS011;597;51.998;5.880;2022-09-09T15:16:37;5.30;;;3.37;;
1214;SDS011;597;51.998;5.880;2022-09-09T15:19:02;8.20;;;4.33;;
1214;SDS011;597;51.998;5.880;2022-09-09T15:21:29;13.40;;;3.27;;
1214;SDS011;597;51.998;5.880;2022-09-09T15:23:54;9.40;;;3.87;;
1214;SDS011;597;51.998;5.880;2022-09-09T15:26:20;6.90;;;3.57;;
1214;SDS011;597;51.998;5.880;2022-09-09T15:28:46;4.60;;;3.33;;
1214;SDS011;597;51.998;5.880;2022-09-09T15:31:13;5.83;;;3.93;;
1214;SDS011;597;51.998;5.880;2022-09-09T15:34:03;13.10;;;5.43;;
1214;SDS011;597;51.998;5.880;2022-09-09T15:36:30;6.33;;;4.00;;
1214;SDS011;597;51.998;5.880;2022-09-09T15:38:57;7.27;;;4.20;;
1214;SDS011;597;51.998;5.880;2022-09-09T15:41:22;10.47;;;4.53;;
1214;SDS011;597;51.998;5.880;2022-09-09T15:43:52;10.30;;;5.27;;
1214;SDS011;597;51.998;5.880;2022-09-09T15:48:49;8.50;;;4.90;;
1214;SDS011;597;51.998;5.880;2022-09-09T15:51:15;7.20;;;5.43;;
1214;SDS011;597;51.998;5.880;2022-09-09T15:53:40;19.73;;;6.30;;
1214;SDS011;597;51.998;5.880;2022-09-09T15:56:06;13.47;;;6.20;;
1214;SDS011;597;51.998;5.880;2022-09-09T15:58:34;11.33;;;5.53;;
1214;SDS011;597;51.998;5.880;2022-09-09T16:01:04;44.33;;;8.17;;
1214;SDS011;597;51.998;5.880;2022-09-09T16:03:33;58.40;;;9.17;;
1214;SDS011;597;51.998;5.880;2022-09-09T16:05:58;12.20;;;5.83;;
1214;SDS011;597;51.998;5.880;2022-09-09T16:08:23;4.93;;;1.90;;
1214;SDS011;597;51.998;5.880;2022-09-09T16:10:49;2.87;;;1.93;;
1214;SDS011;597;51.998;5.880;2022-09-09T16:13:14;5.17;;;2.73;;
1214;SDS011;597;51.998;5.880;2022-09-09T16:15:39;5.80;;;3.17;;
1214;SDS011;597;51.998;5.880;2022-09-09T16:18:04;6.43;;;3.17;;
1214;SDS011;597;51.998;5.880;2022-09-09T16:20:29;5.67;;;3.60;;
1214;SDS011;597;51.998;5.880;2022-09-09T16:22:55;7.23;;;3.50;;
1214;SDS011;597;51.998;5.880;2022-09-09T16:25:22;7.07;;;4.10;;
1214;SDS011;597;51.998;5.880;2022-09-09T16:27:47;8.73;;;4.40;;
1214;SDS011;597;51.998;5.880;2022-09-09T16:30:12;9.10;;;4.90;;
1214;SDS011;597;51.998;5.880;2022-09-09T16:32:38;7.30;;;5.47;;
1214;SDS011;597;51.998;5.880;2022-09-09T16:35:03;12.07;;;5.97;;
1214;SDS011;597;51.998;5.880;2022-09-09T16:37:28;10.87;;;7.00;;
1214;SDS011;597;51.998;5.880;2022-09-09T16:39:54;12.70;;;7.80;;
1214;SDS011;597;51.998;5.880;2022-09-09T16:42:19;9.47;;;7.73;;
1214;SDS011;597;51.998;5.880;2022-09-09T16:44:44;10.60;;;6.73;;
1214;SDS011;597;51.998;5.880;2022-09-09T16:47:10;12.00;;;7.17;;
1214;SDS011;597;51.998;5.880;2022-09-09T16:49:35;16.03;;;9.03;;
1214;SDS011;597;51.998;5.880;2022-09-09T16:52:01;10.00;;;6.83;;
1214;SDS011;597;51.998;5.880;2022-09-09T16:54:26;10.87;;;7.30;;
1214;SDS011;597;51.998;5.880;2022-09-09T16:56:52;13.70;;;7.03;;
1214;SDS011;597;51.998;5.880;2022-09-09T16:59:18;14.00;;;7.93;;
1214;SDS011;597;51.998;5.880;2022-09-09T17:01:44;22.73;;;10.53;;
1214;SDS011;597;51.998;5.880;2022-09-09T17:04:13;11.63;;;5.80;;
1214;SDS011;597;51.998;5.880;2022-09-09T17:06:41;13.93;;;6.60;;
1214;SDS011;597;51.998;5.880;2022-09-09T17:09:10;13.80;;;5.93;;
1214;SDS011;597;51.998;5.880;2022-09-09T17:11:36;9.87;;;7.60;;
1214;SDS011;597;51.998;5.880;2022-09-09T17:14:03;6.60;;;5.60;;
1214;SDS011;597;51.998;5.880;2022-09-09T17:16:29;8.80;;;5.93;;
1214;SDS011;597;51.998;5.880;2022-09-09T17:18:55;8.73;;;5.20;;